sensor_id;sensor_type;location;lat;lon;timestamp;temperature;humidity
45803;DHT22;31504;51.716;9.184;2023-03-13T00:01:19;17.70;46.10
45803;DHT22;31504;51.716;9.184;2023-03-13T00:04:19;17.70;46.10
45803;DHT22;31504;51.716;9.184;2023-03-13T00:07:20;17.70;46.20
45803;DHT22;31504;51.716;9.184;2023-03-13T00:10:20;17.70;46.10
45803;DHT22;31504;51.716;9.184;2023-03-13T00:13:21;17.70;46.10
45803;DHT22;31504;51.716;9.184;2023-03-13T00:16:21;17.80;46.00
45803;DHT22;31504;51.716;9.184;2023-03-13T00:19:22;17.80;46.10
45803;DHT22;31504;51.716;9.184;2023-03-13T00:22:22;17.80;45.90
45803;DHT22;31504;51.716;9.184;2023-03-13T00:25:23;17.80;46.00
45803;DHT22;31504;51.716;9.184;2023-03-13T00:28:23;17.70;46.10
45803;DHT22;31504;51.716;9.184;2023-03-13T00:31:25;17.80;46.10
45803;DHT22;31504;51.716;9.184;2023-03-13T00:34:25;17.80;46.10
45803;DHT22;31504;51.716;9.184;2023-03-13T00:37:26;17.80;46.10
45803;DHT22;31504;51.716;9.184;2023-03-13T00:40:27;17.80;46.10
45803;DHT22;31504;51.716;9.184;2023-03-13T00:43:27;17.80;46.10
45803;DHT22;31504;51.716;9.184;2023-03-13T00:46:28;17.80;46.10
45803;DHT22;31504;51.716;9.184;2023-03-13T00:49:29;17.80;46.10
45803;DHT22;31504;51.716;9.184;2023-03-13T00:52:29;17.70;46.10
45803;DHT22;31504;51.716;9.184;2023-03-13T00:55:30;17.70;46.10
45803;DHT22;31504;51.716;9.184;2023-03-13T00:58:30;17.80;46.10
45803;DHT22;31504;51.716;9.184;2023-03-13T01:01:33;17.80;46.00
45803;DHT22;31504;51.716;9.184;2023-03-13T01:04:34;17.80;46.10
45803;DHT22;31504;51.716;9.184;2023-03-13T01:07:34;17.70;46.20
45803;DHT22;31504;51.716;9.184;2023-03-13T01:10:34;17.70;46.20
45803;DHT22;31504;51.716;9.184;2023-03-13T01:13:35;17.80;46.20
45803;DHT22;31504;51.716;9.184;2023-03-13T01:16:36;17.80;46.10
45803;DHT22;31504;51.716;9.184;2023-03-13T01:19:37;17.80;46.10
45803;DHT22;31504;51.716;9.184;2023-03-13T01:22:37;17.80;46.10
45803;DHT22;31504;51.716;9.184;2023-03-13T01:25:37;17.80;46.10
45803;DHT22;31504;51.716;9.184;2023-03-13T01:28:39;17.80;46.10
45803;DHT22;31504;51.716;9.184;2023-03-13T01:31:39;17.80;46.10
45803;DHT22;31504;51.716;9.184;2023-03-13T01:34:40;17.80;46.10
45803;DHT22;31504;51.716;9.184;2023-03-13T01:37:40;17.80;46.10
45803;DHT22;31504;51.716;9.184;2023-03-13T01:40:41;17.80;46.10
45803;DHT22;31504;51.716;9.184;2023-03-13T01:43:43;17.80;46.10
45803;DHT22;31504;51.716;9.184;2023-03-13T01:46:43;17.80;46.00
45803;DHT22;31504;51.716;9.184;2023-03-13T01:49:44;17.90;46.00
45803;DHT22;31504;51.716;9.184;2023-03-13T01:52:45;17.90;46.00
45803;DHT22;31504;51.716;9.184;2023-03-13T01:55:45;17.90;46.00
45803;DHT22;31504;51.716;9.184;2023-03-13T01:58:46;17.80;46.10
45803;DHT22;31504;51.716;9.184;2023-03-13T02:01:48;17.80;46.10
45803;DHT22;31504;51.716;9.184;2023-03-13T02:04:51;17.90;46.10
45803;DHT22;31504;51.716;9.184;2023-03-13T02:07:54;17.90;46.00
45803;DHT22;31504;51.716;9.184;2023-03-13T02:11:15;17.90;46.00
45803;DHT22;31504;51.716;9.184;2023-03-13T02:14:17;17.90;46.00
45803;DHT22;31504;51.716;9.184;2023-03-13T02:17:19;17.80;46.10
45803;DHT22;31504;51.716;9.184;2023-03-13T02:20:20;17.90;46.10
45803;DHT22;31504;51.716;9.184;2023-03-13T02:23:23;17.90;46.10
45803;DHT22;31504;51.716;9.184;2023-03-13T02:26:26;17.80;46.10
45803;DHT22;31504;51.716;9.184;2023-03-13T02:29:27;17.80;46.20
45803;DHT22;31504;51.716;9.184;2023-03-13T02:32:28;17.80;46.20
45803;DHT22;31504;51.716;9.184;2023-03-13T02:35:29;17.80;46.20
45803;DHT22;31504;51.716;9.184;2023-03-13T02:38:30;17.80;46.40
45803;DHT22;31504;51.716;9.184;2023-03-13T02:41:32;17.70;46.40
45803;DHT22;31504;51.716;9.184;2023-03-13T02:44:37;17.80;46.40
45803;DHT22;31504;51.716;9.184;2023-03-13T02:47:38;17.80;46.30
45803;DHT22;31504;51.716;9.184;2023-03-13T02:50:38;17.80;46.30
45803;DHT22;31504;51.716;9.184;2023-03-13T02:53:39;17.80;46.40
45803;DHT22;31504;51.716;9.184;2023-03-13T02:56:40;17.90;46.30
45803;DHT22;31504;51.716;9.184;2023-03-13T02:59:41;17.90;46.20
45803;DHT22;31504;51.716;9.184;2023-03-13T03:02:41;17.90;46.20
45803;DHT22;31504;51.716;9.184;2023-03-13T03:05:42;17.80;46.20
45803;DHT22;31504;51.716;9.184;2023-03-13T03:08:42;17.80;46.50
45803;DHT22;31504;51.716;9.184;2023-03-13T03:11:43;17.80;46.30
45803;DHT22;31504;51.716;9.184;2023-03-13T03:14:44;17.80;46.20
45803;DHT22;31504;51.716;9.184;2023-03-13T03:17:44;17.80;46.30
45803;DHT22;31504;51.716;9.184;2023-03-13T03:20:45;17.80;46.30
45803;DHT22;31504;51.716;9.184;2023-03-13T03:23:45;17.80;46.30
45803;DHT22;31504;51.716;9.184;2023-03-13T03:26:46;17.80;46.30
45803;DHT22;31504;51.716;9.184;2023-03-13T03:29:46;17.90;46.20
45803;DHT22;31504;51.716;9.184;2023-03-13T03:32:47;18.20;45.80
45803;DHT22;31504;51.716;9.184;2023-03-13T03:35:47;18.30;45.60
45803;DHT22;31504;51.716;9.184;2023-03-13T03:38:47;18.30;45.50
45803;DHT22;31504;51.716;9.184;2023-03-13T03:41:48;18.30;45.50
45803;DHT22;31504;51.716;9.184;2023-03-13T03:44:49;18.30;45.50
45803;DHT22;31504;51.716;9.184;2023-03-13T03:47:49;18.50;45.40
45803;DHT22;31504;51.716;9.184;2023-03-13T03:50:49;18.40;45.20
45803;DHT22;31504;51.716;9.184;2023-03-13T03:53:50;18.30;45.50
45803;DHT22;31504;51.716;9.184;2023-03-13T03:56:50;18.40;45.40
45803;DHT22;31504;51.716;9.184;2023-03-13T03:59:51;18.40;45.20
45803;DHT22;31504;51.716;9.184;2023-03-13T04:02:51;18.40;45.40
45803;DHT22;31504;51.716;9.184;2023-03-13T04:05:51;18.50;45.40
45803;DHT22;31504;51.716;9.184;2023-03-13T04:08:52;18.40;45.40
45803;DHT22;31504;51.716;9.184;2023-03-13T04:11:52;18.30;45.50
45803;DHT22;31504;51.716;9.184;2023-03-13T04:14:53;18.10;45.90
45803;DHT22;31504;51.716;9.184;2023-03-13T04:17:53;18.00;46.20
45803;DHT22;31504;51.716;9.184;2023-03-13T04:21:00;17.90;46.50
45803;DHT22;31504;51.716;9.184;2023-03-13T04:24:01;17.90;46.30
45803;DHT22;31504;51.716;9.184;2023-03-13T04:27:02;17.90;46.20
45803;DHT22;31504;51.716;9.184;2023-03-13T04:30:03;18.00;46.20
45803;DHT22;31504;51.716;9.184;2023-03-13T04:33:03;18.00;46.10
45803;DHT22;31504;51.716;9.184;2023-03-13T04:36:04;18.00;46.20
45803;DHT22;31504;51.716;9.184;2023-03-13T04:39:04;18.00;46.20
45803;DHT22;31504;51.716;9.184;2023-03-13T04:42:05;18.00;46.30
45803;DHT22;31504;51.716;9.184;2023-03-13T04:45:06;18.00;46.10
45803;DHT22;31504;51.716;9.184;2023-03-13T04:48:06;18.00;46.20
45803;DHT22;31504;51.716;9.184;2023-03-13T04:51:07;18.10;46.30
45803;DHT22;31504;51.716;9.184;2023-03-13T04:54:07;18.00;46.10
45803;DHT22;31504;51.716;9.184;2023-03-13T04:57:08;18.00;46.20
45803;DHT22;31504;51.716;9.184;2023-03-13T05:00:08;17.90;46.30
45803;DHT22;31504;51.716;9.184;2023-03-13T05:03:10;18.00;46.30
45803;DHT22;31504;51.716;9.184;2023-03-13T05:06:11;18.00;46.30
45803;DHT22;31504;51.716;9.184;2023-03-13T05:09:11;18.00;46.30
45803;DHT22;31504;51.716;9.184;2023-03-13T05:12:11;17.90;46.30
45803;DHT22;31504;51.716;9.184;2023-03-13T05:15:12;17.90;46.40
45803;DHT22;31504;51.716;9.184;2023-03-13T05:18:12;18.00;46.40
45803;DHT22;31504;51.716;9.184;2023-03-13T05:21:13;18.00;46.20
45803;DHT22;31504;51.716;9.184;2023-03-13T05:24:13;18.00;46.40
45803;DHT22;31504;51.716;9.184;2023-03-13T05:27:14;18.00;46.40
45803;DHT22;31504;51.716;9.184;2023-03-13T05:30:14;17.90;46.30
45803;DHT22;31504;51.716;9.184;2023-03-13T05:33:14;18.00;46.40
45803;DHT22;31504;51.716;9.184;2023-03-13T05:36:15;18.00;46.40
45803;DHT22;31504;51.716;9.184;2023-03-13T05:39:15;18.10;46.40
45803;DHT22;31504;51.716;9.184;2023-03-13T05:42:16;18.00;46.40
45803;DHT22;31504;51.716;9.184;2023-03-13T05:45:16;18.00;46.60
45803;DHT22;31504;51.716;9.184;2023-03-13T05:48:17;18.00;46.90
45803;DHT22;31504;51.716;9.184;2023-03-13T05:51:17;18.00;46.50
45803;DHT22;31504;51.716;9.184;2023-03-13T05:54:18;18.00;46.50
45803;DHT22;31504;51.716;9.184;2023-03-13T05:57:18;18.00;46.30
45803;DHT22;31504;51.716;9.184;2023-03-13T06:00:18;17.90;46.80
45803;DHT22;31504;51.716;9.184;2023-03-13T06:03:19;18.00;46.50
45803;DHT22;31504;51.716;9.184;2023-03-13T06:06:20;18.00;46.30
45803;DHT22;31504;51.716;9.184;2023-03-13T06:09:20;18.00;46.40
45803;DHT22;31504;51.716;9.184;2023-03-13T06:12:20;18.00;46.50
45803;DHT22;31504;51.716;9.184;2023-03-13T06:15:21;18.10;46.30
45803;DHT22;31504;51.716;9.184;2023-03-13T06:18:22;18.00;46.20
45803;DHT22;31504;51.716;9.184;2023-03-13T06:21:23;18.00;46.40
45803;DHT22;31504;51.716;9.184;2023-03-13T06:24:23;18.10;47.10
45803;DHT22;31504;51.716;9.184;2023-03-13T06:27:24;18.10;46.30
45803;DHT22;31504;51.716;9.184;2023-03-13T06:30:24;18.10;46.40
45803;DHT22;31504;51.716;9.184;2023-03-13T06:33:25;18.20;46.30
45803;DHT22;31504;51.716;9.184;2023-03-13T06:36:25;18.10;46.30
45803;DHT22;31504;51.716;9.184;2023-03-13T06:39:25;18.00;46.40
45803;DHT22;31504;51.716;9.184;2023-03-13T06:42:26;18.10;46.60
45803;DHT22;31504;51.716;9.184;2023-03-13T06:45:27;18.10;46.70
45803;DHT22;31504;51.716;9.184;2023-03-13T06:48:27;18.10;46.60
45803;DHT22;31504;51.716;9.184;2023-03-13T06:51:27;18.10;46.40
45803;DHT22;31504;51.716;9.184;2023-03-13T06:54:28;18.10;46.30
45803;DHT22;31504;51.716;9.184;2023-03-13T06:57:28;18.10;46.50
45803;DHT22;31504;51.716;9.184;2023-03-13T07:00:29;18.10;46.70
45803;DHT22;31504;51.716;9.184;2023-03-13T07:03:29;18.20;46.30
45803;DHT22;31504;51.716;9.184;2023-03-13T07:06:29;18.20;46.30
45803;DHT22;31504;51.716;9.184;2023-03-13T07:09:30;18.20;46.40
45803;DHT22;31504;51.716;9.184;2023-03-13T07:12:30;18.20;46.50
45803;DHT22;31504;51.716;9.184;2023-03-13T07:15:31;18.20;46.50
45803;DHT22;31504;51.716;9.184;2023-03-13T07:18:31;18.20;46.40
45803;DHT22;31504;51.716;9.184;2023-03-13T07:21:32;18.20;46.50
45803;DHT22;31504;51.716;9.184;2023-03-13T07:24:32;18.20;46.60
45803;DHT22;31504;51.716;9.184;2023-03-13T07:27:33;18.20;46.50
45803;DHT22;31504;51.716;9.184;2023-03-13T07:30:33;18.20;46.60
45803;DHT22;31504;51.716;9.184;2023-03-13T07:33:34;18.20;46.70
45803;DHT22;31504;51.716;9.184;2023-03-13T07:36:34;18.20;46.40
45803;DHT22;31504;51.716;9.184;2023-03-13T07:39:35;18.30;46.80
45803;DHT22;31504;51.716;9.184;2023-03-13T07:42:38;18.30;46.70
45803;DHT22;31504;51.716;9.184;2023-03-13T07:45:38;18.30;46.60
45803;DHT22;31504;51.716;9.184;2023-03-13T07:48:40;18.30;46.30
45803;DHT22;31504;51.716;9.184;2023-03-13T07:51:41;18.30;46.40
45803;DHT22;31504;51.716;9.184;2023-03-13T07:54:42;18.40;46.90
45803;DHT22;31504;51.716;9.184;2023-03-13T07:57:42;18.60;46.50
45803;DHT22;31504;51.716;9.184;2023-03-13T08:00:42;18.80;46.30
45803;DHT22;31504;51.716;9.184;2023-03-13T08:03:43;18.80;46.40
45803;DHT22;31504;51.716;9.184;2023-03-13T08:06:44;18.80;46.60
45803;DHT22;31504;51.716;9.184;2023-03-13T08:09:44;18.80;46.60
45803;DHT22;31504;51.716;9.184;2023-03-13T08:12:45;18.90;46.60
45803;DHT22;31504;51.716;9.184;2023-03-13T08:15:45;18.90;46.70
45803;DHT22;31504;51.716;9.184;2023-03-13T08:18:47;18.90;46.80
45803;DHT22;31504;51.716;9.184;2023-03-13T08:21:47;18.90;46.70
45803;DHT22;31504;51.716;9.184;2023-03-13T08:24:48;19.00;46.40
45803;DHT22;31504;51.716;9.184;2023-03-13T08:27:48;19.00;46.60
45803;DHT22;31504;51.716;9.184;2023-03-13T08:30:49;18.90;46.60
45803;DHT22;31504;51.716;9.184;2023-03-13T08:33:49;19.00;46.70
45803;DHT22;31504;51.716;9.184;2023-03-13T08:36:49;19.00;46.70
45803;DHT22;31504;51.716;9.184;2023-03-13T08:39:52;19.00;46.60
45803;DHT22;31504;51.716;9.184;2023-03-13T08:42:55;19.10;46.80
45803;DHT22;31504;51.716;9.184;2023-03-13T08:45:55;19.10;46.60
45803;DHT22;31504;51.716;9.184;2023-03-13T08:48:56;19.10;46.70
45803;DHT22;31504;51.716;9.184;2023-03-13T08:51:57;19.10;46.60
45803;DHT22;31504;51.716;9.184;2023-03-13T08:54:57;19.00;46.80
45803;DHT22;31504;51.716;9.184;2023-03-13T08:57:57;19.10;47.30
45803;DHT22;31504;51.716;9.184;2023-03-13T09:01:02;19.10;46.70
45803;DHT22;31504;51.716;9.184;2023-03-13T09:04:03;19.20;46.80
45803;DHT22;31504;51.716;9.184;2023-03-13T09:07:04;19.30;46.80
45803;DHT22;31504;51.716;9.184;2023-03-13T09:10:04;19.30;46.80
45803;DHT22;31504;51.716;9.184;2023-03-13T09:13:05;19.30;46.70
45803;DHT22;31504;51.716;9.184;2023-03-13T09:16:09;19.30;46.60
45803;DHT22;31504;51.716;9.184;2023-03-13T09:19:10;19.30;46.80
45803;DHT22;31504;51.716;9.184;2023-03-13T09:22:12;19.30;46.70
45803;DHT22;31504;51.716;9.184;2023-03-13T09:25:12;19.20;46.80
45803;DHT22;31504;51.716;9.184;2023-03-13T09:28:13;19.30;46.90
45803;DHT22;31504;51.716;9.184;2023-03-13T09:31:14;19.30;46.80
45803;DHT22;31504;51.716;9.184;2023-03-13T09:34:15;19.30;46.90
45803;DHT22;31504;51.716;9.184;2023-03-13T09:37:16;19.30;46.90
45803;DHT22;31504;51.716;9.184;2023-03-13T09:40:17;19.30;46.90
45803;DHT22;31504;51.716;9.184;2023-03-13T09:46:34;19.30;46.90
45803;DHT22;31504;51.716;9.184;2023-03-13T09:49:50;19.40;46.80
45803;DHT22;31504;51.716;9.184;2023-03-13T09:52:54;19.40;46.90
45803;DHT22;31504;51.716;9.184;2023-03-13T09:55:56;19.40;47.00
45803;DHT22;31504;51.716;9.184;2023-03-13T09:59:15;19.50;47.00
45803;DHT22;31504;51.716;9.184;2023-03-13T10:02:22;19.40;47.10
45803;DHT22;31504;51.716;9.184;2023-03-13T10:05:25;19.40;47.10
45803;DHT22;31504;51.716;9.184;2023-03-13T10:08:29;19.40;47.20
45803;DHT22;31504;51.716;9.184;2023-03-13T10:11:32;19.40;47.30
45803;DHT22;31504;51.716;9.184;2023-03-13T10:17:37;19.50;46.80
45803;DHT22;31504;51.716;9.184;2023-03-13T10:20:38;19.60;47.50
45803;DHT22;31504;51.716;9.184;2023-03-13T10:23:40;19.60;47.30
45803;DHT22;31504;51.716;9.184;2023-03-13T10:26:42;19.60;47.50
45803;DHT22;31504;51.716;9.184;2023-03-13T10:29:43;19.60;47.60
45803;DHT22;31504;51.716;9.184;2023-03-13T10:32:43;19.60;48.20
45803;DHT22;31504;51.716;9.184;2023-03-13T10:35:44;19.70;47.70
45803;DHT22;31504;51.716;9.184;2023-03-13T10:38:48;19.80;47.60
45803;DHT22;31504;51.716;9.184;2023-03-13T10:41:49;19.70;47.60
45803;DHT22;31504;51.716;9.184;2023-03-13T10:44:55;19.70;47.60
45803;DHT22;31504;51.716;9.184;2023-03-13T10:47:56;19.50;47.90
45803;DHT22;31504;51.716;9.184;2023-03-13T10:50:59;19.40;47.80
45803;DHT22;31504;51.716;9.184;2023-03-13T10:53:59;19.30;48.10
45803;DHT22;31504;51.716;9.184;2023-03-13T10:57:07;19.20;48.10
45803;DHT22;31504;51.716;9.184;2023-03-13T11:03:43;19.30;48.10
45803;DHT22;31504;51.716;9.184;2023-03-13T11:06:49;19.30;47.70
45803;DHT22;31504;51.716;9.184;2023-03-13T11:09:56;19.20;48.00
45803;DHT22;31504;51.716;9.184;2023-03-13T11:12:57;19.30;47.70
45803;DHT22;31504;51.716;9.184;2023-03-13T11:15:58;19.30;48.10
45803;DHT22;31504;51.716;9.184;2023-03-13T11:31:40;19.10;47.80
45803;DHT22;31504;51.716;9.184;2023-03-13T11:34:42;19.10;48.20
45803;DHT22;31504;51.716;9.184;2023-03-13T11:37:45;19.20;47.80
45803;DHT22;31504;51.716;9.184;2023-03-13T11:41:02;19.00;47.60
45803;DHT22;31504;51.716;9.184;2023-03-13T11:44:10;18.90;47.70
45803;DHT22;31504;51.716;9.184;2023-03-13T11:56:26;19.10;47.50
45803;DHT22;31504;51.716;9.184;2023-03-13T11:59:33;19.10;48.00
45803;DHT22;31504;51.716;9.184;2023-03-13T12:02:38;19.00;48.10
45803;DHT22;31504;51.716;9.184;2023-03-13T12:05:43;19.10;48.60
45803;DHT22;31504;51.716;9.184;2023-03-13T12:08:48;19.10;47.70
45803;DHT22;31504;51.716;9.184;2023-03-13T12:12:00;19.10;47.40
45803;DHT22;31504;51.716;9.184;2023-03-13T12:18:17;19.00;48.70
45803;DHT22;31504;51.716;9.184;2023-03-13T12:21:22;19.10;47.80
45803;DHT22;31504;51.716;9.184;2023-03-13T12:24:27;19.10;48.60
45803;DHT22;31504;51.716;9.184;2023-03-13T12:27:32;19.00;48.80
45803;DHT22;31504;51.716;9.184;2023-03-13T12:30:44;18.90;48.30
45803;DHT22;31504;51.716;9.184;2023-03-13T12:40:30;19.20;48.50
45803;DHT22;31504;51.716;9.184;2023-03-13T12:43:32;19.20;48.60
45803;DHT22;31504;51.716;9.184;2023-03-13T13:02:02;19.60;48.30
45803;DHT22;31504;51.716;9.184;2023-03-13T13:05:19;19.70;48.30
45803;DHT22;31504;51.716;9.184;2023-03-13T13:08:23;19.70;48.00
45803;DHT22;31504;51.716;9.184;2023-03-13T13:17:56;19.80;48.40
45803;DHT22;31504;51.716;9.184;2023-03-13T13:30:32;19.90;48.40
45803;DHT22;31504;51.716;9.184;2023-03-13T13:33:34;19.90;48.30
45803;DHT22;31504;51.716;9.184;2023-03-13T13:36:40;20.00;48.20
45803;DHT22;31504;51.716;9.184;2023-03-13T13:39:42;19.90;48.10
45803;DHT22;31504;51.716;9.184;2023-03-13T13:42:47;19.90;48.20
45803;DHT22;31504;51.716;9.184;2023-03-13T13:45:59;20.00;48.20
45803;DHT22;31504;51.716;9.184;2023-03-13T13:55:49;19.90;48.40
45803;DHT22;31504;51.716;9.184;2023-03-13T13:58:26;20.00;48.40
45803;DHT22;31504;51.716;9.184;2023-03-13T14:01:27;20.00;48.40
45803;DHT22;31504;51.716;9.184;2023-03-13T14:04:29;20.00;48.50
45803;DHT22;31504;51.716;9.184;2023-03-13T14:07:40;20.00;49.10
45803;DHT22;31504;51.716;9.184;2023-03-13T14:10:44;20.00;48.60
45803;DHT22;31504;51.716;9.184;2023-03-13T14:14:07;20.00;48.60
45803;DHT22;31504;51.716;9.184;2023-03-13T14:17:07;20.00;48.80
45803;DHT22;31504;51.716;9.184;2023-03-13T14:20:54;20.00;48.70
45803;DHT22;31504;51.716;9.184;2023-03-13T14:26:31;20.00;48.60
45803;DHT22;31504;51.716;9.184;2023-03-13T14:29:33;20.00;48.50
45803;DHT22;31504;51.716;9.184;2023-03-13T14:32:33;20.10;48.50
45803;DHT22;31504;51.716;9.184;2023-03-13T14:35:34;20.00;48.40
45803;DHT22;31504;51.716;9.184;2023-03-13T14:38:34;20.00;48.50
45803;DHT22;31504;51.716;9.184;2023-03-13T14:41:36;20.00;48.00
45803;DHT22;31504;51.716;9.184;2023-03-13T14:44:39;20.00;48.00
45803;DHT22;31504;51.716;9.184;2023-03-13T14:47:42;20.00;48.40
45803;DHT22;31504;51.716;9.184;2023-03-13T14:50:43;20.00;48.30
45803;DHT22;31504;51.716;9.184;2023-03-13T14:53:56;20.00;48.30
45803;DHT22;31504;51.716;9.184;2023-03-13T15:00:28;20.00;48.20
45803;DHT22;31504;51.716;9.184;2023-03-13T15:03:29;20.00;48.10
45803;DHT22;31504;51.716;9.184;2023-03-13T15:06:30;20.10;48.20
45803;DHT22;31504;51.716;9.184;2023-03-13T15:09:30;20.10;48.20
45803;DHT22;31504;51.716;9.184;2023-03-13T15:12:31;20.10;48.20
45803;DHT22;31504;51.716;9.184;2023-03-13T15:15:41;20.00;48.30
45803;DHT22;31504;51.716;9.184;2023-03-13T15:18:42;20.00;48.30
45803;DHT22;31504;51.716;9.184;2023-03-13T15:21:42;20.00;48.30
45803;DHT22;31504;51.716;9.184;2023-03-13T15:24:43;20.10;48.10
45803;DHT22;31504;51.716;9.184;2023-03-13T15:27:43;20.10;48.00
45803;DHT22;31504;51.716;9.184;2023-03-13T15:30:44;20.10;48.00
45803;DHT22;31504;51.716;9.184;2023-03-13T15:33:54;20.10;48.10
45803;DHT22;31504;51.716;9.184;2023-03-13T15:36:55;20.10;48.00
45803;DHT22;31504;51.716;9.184;2023-03-13T15:39:56;20.00;47.90
45803;DHT22;31504;51.716;9.184;2023-03-13T15:42:57;19.90;48.60
45803;DHT22;31504;51.716;9.184;2023-03-13T15:45:58;20.00;48.40
45803;DHT22;31504;51.716;9.184;2023-03-13T15:48:59;20.10;48.20
45803;DHT22;31504;51.716;9.184;2023-03-13T15:51:59;20.10;48.20
45803;DHT22;31504;51.716;9.184;2023-03-13T15:55:00;20.10;48.30
45803;DHT22;31504;51.716;9.184;2023-03-13T15:58:00;20.10;48.40
45803;DHT22;31504;51.716;9.184;2023-03-13T16:01:02;20.10;48.30
45803;DHT22;31504;51.716;9.184;2023-03-13T16:04:02;19.80;48.90
45803;DHT22;31504;51.716;9.184;2023-03-13T16:07:07;19.90;48.80
45803;DHT22;31504;51.716;9.184;2023-03-13T16:10:15;20.10;48.50
45803;DHT22;31504;51.716;9.184;2023-03-13T16:13:16;20.10;48.90
45803;DHT22;31504;51.716;9.184;2023-03-13T16:16:18;20.10;48.40
45803;DHT22;31504;51.716;9.184;2023-03-13T16:19:19;20.20;48.30
45803;DHT22;31504;51.716;9.184;2023-03-13T16:22:20;20.20;48.30
45803;DHT22;31504;51.716;9.184;2023-03-13T16:25:21;20.20;48.30
45803;DHT22;31504;51.716;9.184;2023-03-13T16:28:21;20.20;48.30
45803;DHT22;31504;51.716;9.184;2023-03-13T16:31:26;20.20;47.80
45803;DHT22;31504;51.716;9.184;2023-03-13T16:34:29;20.10;48.50
45803;DHT22;31504;51.716;9.184;2023-03-13T16:37:30;20.20;49.00
45803;DHT22;31504;51.716;9.184;2023-03-13T16:40:31;20.20;48.50
45803;DHT22;31504;51.716;9.184;2023-03-13T16:43:32;20.20;48.50
45803;DHT22;31504;51.716;9.184;2023-03-13T16:49:36;20.20;48.50
45803;DHT22;31504;51.716;9.184;2023-03-13T16:52:36;20.20;48.50
45803;DHT22;31504;51.716;9.184;2023-03-13T16:55:37;20.20;48.40
45803;DHT22;31504;51.716;9.184;2023-03-13T16:58:37;20.20;48.60
45803;DHT22;31504;51.716;9.184;2023-03-13T17:01:37;20.20;48.50
45803;DHT22;31504;51.716;9.184;2023-03-13T17:04:38;20.20;48.50
45803;DHT22;31504;51.716;9.184;2023-03-13T17:07:38;20.20;48.60
45803;DHT22;31504;51.716;9.184;2023-03-13T17:10:39;20.20;48.70
45803;DHT22;31504;51.716;9.184;2023-03-13T17:13:40;20.20;48.20
45803;DHT22;31504;51.716;9.184;2023-03-13T17:16:41;20.10;48.90
45803;DHT22;31504;51.716;9.184;2023-03-13T17:19:43;20.20;48.80
45803;DHT22;31504;51.716;9.184;2023-03-13T17:22:43;20.20;48.90
45803;DHT22;31504;51.716;9.184;2023-03-13T17:25:44;20.20;48.80
45803;DHT22;31504;51.716;9.184;2023-03-13T17:28:46;20.20;48.80
45803;DHT22;31504;51.716;9.184;2023-03-13T17:31:47;20.20;48.80
45803;DHT22;31504;51.716;9.184;2023-03-13T17:34:47;20.20;48.70
45803;DHT22;31504;51.716;9.184;2023-03-13T17:37:48;20.20;48.80
45803;DHT22;31504;51.716;9.184;2023-03-13T17:40:48;20.20;48.80
45803;DHT22;31504;51.716;9.184;2023-03-13T17:43:49;20.20;48.80
45803;DHT22;31504;51.716;9.184;2023-03-13T17:46:49;20.10;48.70
45803;DHT22;31504;51.716;9.184;2023-03-13T17:49:50;20.10;48.90
45803;DHT22;31504;51.716;9.184;2023-03-13T17:52:51;20.10;48.80
45803;DHT22;31504;51.716;9.184;2023-03-13T17:55:51;20.10;48.90
45803;DHT22;31504;51.716;9.184;2023-03-13T17:58:52;20.10;48.90
45803;DHT22;31504;51.716;9.184;2023-03-13T18:01:55;20.10;48.90
45803;DHT22;31504;51.716;9.184;2023-03-13T18:04:56;20.10;48.90
45803;DHT22;31504;51.716;9.184;2023-03-13T18:07:56;20.10;49.10
45803;DHT22;31504;51.716;9.184;2023-03-13T18:10:57;20.10;49.00
45803;DHT22;31504;51.716;9.184;2023-03-13T18:13:57;20.10;49.10
45803;DHT22;31504;51.716;9.184;2023-03-13T18:16:58;20.10;49.00
45803;DHT22;31504;51.716;9.184;2023-03-13T18:19:58;20.10;49.10
45803;DHT22;31504;51.716;9.184;2023-03-13T18:22:58;20.10;49.20
45803;DHT22;31504;51.716;9.184;2023-03-13T18:25:59;19.80;49.10
45803;DHT22;31504;51.716;9.184;2023-03-13T18:29:00;19.70;49.20
45803;DHT22;31504;51.716;9.184;2023-03-13T18:32:01;19.60;49.50
45803;DHT22;31504;51.716;9.184;2023-03-13T18:35:02;19.50;49.00
45803;DHT22;31504;51.716;9.184;2023-03-13T18:38:02;19.40;48.80
45803;DHT22;31504;51.716;9.184;2023-03-13T18:41:03;19.40;49.10
45803;DHT22;31504;51.716;9.184;2023-03-13T18:44:03;19.30;48.90
45803;DHT22;31504;51.716;9.184;2023-03-13T18:47:09;19.30;49.10
45803;DHT22;31504;51.716;9.184;2023-03-13T18:50:23;19.20;49.30
45803;DHT22;31504;51.716;9.184;2023-03-13T18:53:25;19.30;48.80
45803;DHT22;31504;51.716;9.184;2023-03-13T18:56:29;19.30;49.20
45803;DHT22;31504;51.716;9.184;2023-03-13T18:59:33;19.30;48.80
45803;DHT22;31504;51.716;9.184;2023-03-13T19:02:33;19.30;48.50
45803;DHT22;31504;51.716;9.184;2023-03-13T19:05:33;19.30;48.70
45803;DHT22;31504;51.716;9.184;2023-03-13T19:08:34;19.20;48.90
45803;DHT22;31504;51.716;9.184;2023-03-13T19:11:34;19.30;49.40
45803;DHT22;31504;51.716;9.184;2023-03-13T19:14:35;19.30;48.50
45803;DHT22;31504;51.716;9.184;2023-03-13T19:17:35;19.30;48.60
45803;DHT22;31504;51.716;9.184;2023-03-13T19:20:36;19.30;48.70
45803;DHT22;31504;51.716;9.184;2023-03-13T19:23:36;19.20;48.50
45803;DHT22;31504;51.716;9.184;2023-03-13T19:26:38;19.20;49.00
45803;DHT22;31504;51.716;9.184;2023-03-13T19:29:39;19.20;48.80
45803;DHT22;31504;51.716;9.184;2023-03-13T19:32:40;19.20;48.90
45803;DHT22;31504;51.716;9.184;2023-03-13T19:35:40;19.20;48.70
45803;DHT22;31504;51.716;9.184;2023-03-13T19:38:41;19.20;48.90
45803;DHT22;31504;51.716;9.184;2023-03-13T19:41:41;19.20;48.60
45803;DHT22;31504;51.716;9.184;2023-03-13T19:44:42;19.20;48.60
45803;DHT22;31504;51.716;9.184;2023-03-13T19:47:42;19.20;48.90
45803;DHT22;31504;51.716;9.184;2023-03-13T19:50:43;19.20;49.00
45803;DHT22;31504;51.716;9.184;2023-03-13T19:53:44;19.20;49.00
45803;DHT22;31504;51.716;9.184;2023-03-13T19:56:45;19.20;49.10
45803;DHT22;31504;51.716;9.184;2023-03-13T19:59:46;19.20;49.40
45803;DHT22;31504;51.716;9.184;2023-03-13T20:02:47;19.20;48.70
45803;DHT22;31504;51.716;9.184;2023-03-13T20:05:47;19.20;48.80
45803;DHT22;31504;51.716;9.184;2023-03-13T20:08:54;19.20;49.10
45803;DHT22;31504;51.716;9.184;2023-03-13T20:11:55;19.20;48.50
45803;DHT22;31504;51.716;9.184;2023-03-13T20:14:55;19.20;49.30
45803;DHT22;31504;51.716;9.184;2023-03-13T20:17:55;19.20;48.80
45803;DHT22;31504;51.716;9.184;2023-03-13T20:20:56;19.20;48.70
45803;DHT22;31504;51.716;9.184;2023-03-13T20:23:57;19.20;49.00
45803;DHT22;31504;51.716;9.184;2023-03-13T20:26:58;19.20;49.00
45803;DHT22;31504;51.716;9.184;2023-03-13T20:29:59;19.20;48.90
45803;DHT22;31504;51.716;9.184;2023-03-13T20:32:59;19.20;48.70
45803;DHT22;31504;51.716;9.184;2023-03-13T20:36:01;19.20;49.00